Time;durP1;ratioP1;P1;durP2;ratioP2;P2;SDS_P1;SDS_P2;PMS_P1;PMS_P2;Temp;Humidity;BMP_temperature;BMP_pressure;BME280_temperature;BME280_humidity;BME280_pressure;Samples;Min_cycle;Max_cycle;Signal;HPM_P1;HPM_P2
2022/12/21 00:01:44;;;;;;;7.85;4.95;;;10.90;96.70;;;;;;4891898;29;20130;-73
2022/12/21 00:04:16;;;;;;;6.95;4.57;;;10.80;96.70;;;;;;4903124;29;20091;-74
2022/12/21 00:06:44;;;;;;;8.27;4.70;;;10.70;96.70;;;;;;4913506;29;20467;-74
2022/12/21 00:09:14;;;;;;;8.45;4.68;;;10.70;96.70;;;;;;4915364;29;20051;-75
2022/12/21 00:11:43;;;;;;;7.88;4.88;;;10.70;96.70;;;;;;4919935;29;20450;-74
2022/12/21 00:14:11;;;;;;;7.60;5.57;;;10.80;96.70;;;;;;4916135;29;21625;-73
2022/12/21 00:16:42;;;;;;;10.02;6.50;;;10.80;96.70;;;;;;4907309;29;20079;-73
2022/12/21 00:19:13;;;;;;;8.32;5.47;;;10.70;96.70;;;;;;4921201;29;20050;-73
2022/12/21 00:21:41;;;;;;;9.07;5.80;;;10.70;96.70;;;;;;4916079;29;20051;-74
2022/12/21 00:24:09;;;;;;;9.68;4.88;;;10.70;96.70;;;;;;4901655;29;20048;-73
2022/12/21 00:26:38;;;;;;;10.05;5.13;;;10.70;96.70;;;;;;4912239;29;20080;-73
2022/12/21 00:29:06;;;;;;;9.98;5.15;;;10.70;96.70;;;;;;4890059;29;20040;-73
2022/12/21 00:31:36;;;;;;;7.85;4.82;;;10.70;96.70;;;;;;4895317;29;20517;-74
2022/12/21 00:34:06;;;;;;;6.93;5.00;;;10.70;96.70;;;;;;4903437;29;20050;-73
2022/12/21 00:36:36;;;;;;;6.45;4.47;;;10.70;96.70;;;;;;4900931;29;20052;-74
2022/12/21 00:39:04;;;;;;;7.72;5.18;;;10.80;96.70;;;;;;4890422;29;20418;-74
2022/12/21 00:41:32;;;;;;;6.35;4.72;;;10.70;96.70;;;;;;4921197;29;20525;-74
2022/12/21 00:44:00;;;;;;;5.90;4.50;;;10.80;96.70;;;;;;4907356;29;20067;-73
2022/12/21 00:46:30;;;;;;;5.35;4.45;;;10.80;96.70;;;;;;4899877;29;20626;-73
2022/12/21 00:49:00;;;;;;;6.20;4.32;;;10.80;96.70;;;;;;4895907;29;20586;-73
2022/12/21 00:51:32;;;;;;;6.03;4.68;;;10.80;96.70;;;;;;4885107;29;20052;-74
2022/12/21 00:54:00;;;;;;;6.68;4.85;;;10.70;96.70;;;;;;4889712;29;20112;-74
2022/12/21 00:56:29;;;;;;;6.13;4.60;;;10.70;96.70;;;;;;4899850;29;20759;-74
2022/12/21 00:58:57;;;;;;;6.38;4.72;;;10.70;96.70;;;;;;4899161;29;20051;-73
2022/12/21 01:01:27;;;;;;;5.78;4.60;;;10.70;96.70;;;;;;4891709;29;20044;-73
2022/12/21 01:03:56;;;;;;;4.72;4.10;;;10.70;96.70;;;;;;4890085;29;20097;-74
2022/12/21 01:06:27;;;;;;;4.50;3.72;;;10.70;96.70;;;;;;4884519;29;20075;-74
2022/12/21 01:08:57;;;;;;;5.15;3.28;;;10.70;96.70;;;;;;4885812;29;20139;-73
2022/12/21 01:11:28;;;;;;;3.67;3.25;;;10.60;96.70;;;;;;4913243;29;20044;-73
2022/12/21 01:13:56;;;;;;;4.97;3.55;;;10.60;96.70;;;;;;4904555;29;20086;-74
2022/12/21 01:16:27;;;;;;;5.35;3.30;;;10.60;96.70;;;;;;4906000;29;20561;-73
2022/12/21 01:18:58;;;;;;;6.78;3.22;;;10.50;96.70;;;;;;4907629;29;20044;-74
2022/12/21 01:21:29;;;;;;;3.58;3.20;;;10.50;96.70;;;;;;4889488;29;20055;-74
2022/12/21 01:24:00;;;;;;;5.78;3.33;;;10.60;96.70;;;;;;4903147;29;20075;-74
2022/12/21 01:26:29;;;;;;;4.15;3.30;;;10.60;96.70;;;;;;4911940;29;20103;-73
2022/12/21 01:28:58;;;;;;;6.28;3.63;;;10.70;96.70;;;;;;4922182;29;20650;-74
2022/12/21 01:31:26;;;;;;;4.80;3.22;;;10.60;96.70;;;;;;4901180;29;20578;-74
2022/12/21 01:33:55;;;;;;;4.25;3.20;;;10.60;96.70;;;;;;4922715;29;20071;-73
2022/12/21 01:36:23;;;;;;;4.72;3.15;;;10.50;96.70;;;;;;4902898;29;20261;-73
2022/12/21 01:38:51;;;;;;;5.05;3.42;;;10.50;96.70;;;;;;4895438;29;20062;-74
2022/12/21 01:41:22;;;;;;;6.55;3.30;;;10.50;96.70;;;;;;4889320;29;20679;-74
2022/12/21 01:43:55;;;;;;;4.00;3.13;;;10.50;96.70;;;;;;4920048;29;20055;-73
2022/12/21 01:46:28;;;;;;;4.18;3.40;;;10.60;96.70;;;;;;4910765;29;20055;-74
2022/12/21 01:49:04;;;;;;;7.50;3.88;;;10.60;96.70;;;;;;4891617;29;20138;-73
2022/12/21 01:51:37;;;;;;;6.20;3.80;;;10.60;96.70;;;;;;4896114;29;20071;-75
2022/12/21 01:54:20;;;;;;;4.05;3.63;;;10.60;96.70;;;;;;4907086;29;20099;-73
2022/12/21 01:56:53;;;;;;;6.00;3.80;;;10.50;96.70;;;;;;4909301;29;20059;-74
2022/12/21 01:59:24;;;;;;;5.20;3.28;;;10.50;96.70;;;;;;4903986;29;20064;-73
2022/12/21 02:01:53;;;;;;;4.70;3.88;;;10.50;96.70;;;;;;4902427;29;20052;-74
2022/12/21 02:04:21;;;;;;;5.00;3.95;;;10.50;96.70;;;;;;4909715;29;20055;-74
2022/12/21 02:06:54;;;;;;;6.30;3.92;;;10.50;96.70;;;;;;4887487;29;20062;-73
2022/12/21 02:09:24;;;;;;;4.88;4.18;;;10.50;96.70;;;;;;4889982;29;20453;-74
2022/12/21 02:11:56;;;;;;;4.95;4.00;;;10.50;96.70;;;;;;4899855;29;20406;-74
2022/12/21 02:14:28;;;;;;;5.80;4.18;;;10.40;96.70;;;;;;4899161;29;20044;-74
2022/12/21 02:17:05;;;;;;;4.93;3.60;;;10.50;96.70;;;;;;4910890;29;20060;-74
2022/12/21 02:20:14;;;;;;;4.30;3.70;;;10.50;96.70;;;;;;4891457;29;20048;-73
2022/12/21 02:22:59;;;;;;;4.38;3.33;;;10.50;96.70;;;;;;4898365;29;20044;-75
2022/12/21 02:26:06;;;;;;;4.25;3.35;;;10.40;96.70;;;;;;4920345;29;20047;-74
2022/12/21 02:29:11;;;;;;;4.72;2.97;;;10.40;96.70;;;;;;4861551;29;20069;-73
2022/12/21 02:31:50;;;;;;;3.25;2.65;;;10.40;96.70;;;;;;4832367;29;20420;-74
2022/12/21 02:34:28;;;;;;;4.50;2.95;;;10.40;96.70;;;;;;4908484;29;20047;-74
2022/12/21 02:37:02;;;;;;;4.47;2.50;;;10.40;96.70;;;;;;4894843;29;20893;-74
2022/12/21 02:39:39;;;;;;;3.47;2.50;;;10.40;96.70;;;;;;4903415;29;20256;-75
2022/12/21 02:44:12;;;;;;;4.38;3.15;;;10.40;96.70;;;;;;4891379;29;20047;-74
2022/12/21 02:45:10;;;;;;;4.60;3.17;;;10.40;96.70;;;;;;4899545;29;20053;-74
2022/12/21 02:47:46;;;;;;;4.33;3.17;;;10.30;96.70;;;;;;4902826;29;20531;-75
2022/12/21 02:50:15;;;;;;;3.58;3.28;;;10.20;96.70;;;;;;4886562;29;20285;-75
2022/12/21 02:52:51;;;;;;;5.63;3.17;;;10.20;96.70;;;;;;4893049;29;20080;-75
2022/12/21 02:55:19;;;;;;;5.57;3.35;;;10.20;96.70;;;;;;4914308;29;20043;-74
2022/12/21 02:57:47;;;;;;;5.15;3.45;;;10.30;96.70;;;;;;4900313;29;20478;-74
2022/12/21 03:00:23;;;;;;;4.70;3.40;;;10.30;96.70;;;;;;4903652;29;20500;-74
2022/12/21 03:06:40;;;;;;;4.38;3.72;;;10.20;96.70;;;;;;4847933;29;20049;-74
2022/12/21 03:09:19;;;;;;;4.15;3.63;;;10.10;96.70;;;;;;4841290;29;20060;-74
2022/12/21 03:11:54;;;;;;;4.05;3.30;;;10.10;96.70;;;;;;4864112;29;20060;-74
2022/12/21 03:14:33;;;;;;;3.53;3.22;;;10.10;96.70;;;;;;4860116;29;20125;-74
2022/12/21 03:17:10;;;;;;;3.95;3.35;;;10.10;96.70;;;;;;4842922;29;20049;-75
2022/12/21 03:19:49;;;;;;;3.10;2.72;;;10.20;96.70;;;;;;4847817;29;20530;-74
2022/12/21 03:22:28;;;;;;;4.53;3.15;;;10.20;96.70;;;;;;4844555;29;20139;-75
2022/12/21 03:25:04;;;;;;;3.40;3.00;;;10.10;96.70;;;;;;4855436;29;20057;-75
2022/12/21 03:27:36;;;;;;;3.60;2.78;;;9.90;96.70;;;;;;4862880;29;20080;-75
2022/12/21 03:30:08;;;;;;;3.97;2.85;;;10.00;96.70;;;;;;4855203;29;20061;-75
2022/12/21 03:32:41;;;;;;;3.38;2.80;;;10.10;96.70;;;;;;4863211;29;20061;-75
2022/12/21 03:35:17;;;;;;;5.22;3.13;;;10.10;96.70;;;;;;4862460;29;20104;-74
2022/12/21 03:37:47;;;;;;;4.68;2.92;;;10.10;96.70;;;;;;4861306;29;20049;-75
2022/12/21 03:40:20;;;;;;;4.38;2.80;;;10.00;96.70;;;;;;4883465;29;20055;-75
2022/12/21 03:42:54;;;;;;;4.00;3.10;;;10.00;96.70;;;;;;4914926;29;20506;-75
2022/12/21 03:45:26;;;;;;;6.80;2.88;;;10.10;96.70;;;;;;4924529;29;20048;-74
2022/12/21 03:48:01;;;;;;;4.45;3.10;;;9.90;96.70;;;;;;4894506;29;20107;-75
2022/12/21 03:50:35;;;;;;;3.95;2.47;;;9.90;96.70;;;;;;4894656;29;20497;-75
2022/12/21 03:53:10;;;;;;;3.63;2.72;;;9.90;96.70;;;;;;4925246;29;20052;-74
2022/12/21 03:55:43;;;;;;;3.10;2.80;;;9.90;96.70;;;;;;4918686;29;20094;-75
2022/12/21 03:58:12;;;;;;;2.80;2.42;;;9.80;96.70;;;;;;4899312;29;20051;-80
2022/12/21 04:00:44;;;;;;;3.88;2.70;;;9.80;96.70;;;;;;4885753;29;20046;-75
2022/12/21 04:03:20;;;;;;;6.32;3.10;;;9.80;96.70;;;;;;4898907;29;20052;-75
2022/12/21 04:05:53;;;;;;;;;;;9.90;96.70;;;;;;4918007;29;20635;-75
2022/12/21 04:08:22;;;;;;;4.88;3.00;;;9.90;96.70;;;;;;4917383;29;19927;-75
2022/12/21 04:10:52;;;;;;;4.70;3.33;;;9.70;96.70;;;;;;4905488;29;20047;-75
2022/12/21 04:13:20;;;;;;;3.60;2.97;;;9.60;96.70;;;;;;4899008;29;20123;-75
2022/12/21 04:16:03;;;;;;;3.88;3.08;;;9.60;96.70;;;;;;4891843;29;20687;-74
2022/12/21 04:21:21;;;;;;;4.88;3.00;;;9.60;96.70;;;;;;4911322;29;20039;-75
2022/12/21 04:29:33;;;;;;;4.00;3.38;;;9.70;96.70;;;;;;4903106;29;20048;-75
2022/12/21 04:32:01;;;;;;;3.25;2.90;;;9.70;96.70;;;;;;4898042;29;20842;-75
2022/12/21 04:34:33;;;;;;;4.25;3.17;;;9.70;96.70;;;;;;4907246;29;20048;-75
2022/12/21 04:39:49;;;;;;;4.03;3.15;;;9.60;96.70;;;;;;4892946;29;20052;-76
2022/12/21 04:42:18;;;;;;;4.05;3.17;;;9.70;96.70;;;;;;4887983;29;20099;-76
2022/12/21 04:44:46;;;;;;;4.65;3.05;;;9.70;96.70;;;;;;4909729;29;20115;-75
2022/12/21 04:47:14;;;;;;;3.45;2.88;;;9.80;96.70;;;;;;4895439;29;20052;-74
2022/12/21 04:49:42;;;;;;;3.45;2.97;;;9.80;96.70;;;;;;4901208;29;20075;-74
2022/12/21 04:52:12;;;;;;;5.03;3.80;;;9.70;96.70;;;;;;4917703;29;20775;-75
2022/12/21 04:54:40;;;;;;;5.57;2.85;;;9.80;96.70;;;;;;4916513;29;20044;-75
2022/12/21 04:57:08;;;;;;;3.25;2.95;;;9.80;96.70;;;;;;4904165;29;20044;-75
2022/12/21 04:59:35;;;;;;;3.20;2.88;;;9.70;96.70;;;;;;4909340;29;20043;-74
2022/12/21 05:02:04;;;;;;;3.65;3.05;;;9.70;96.70;;;;;;4911929;29;20048;-75
2022/12/21 05:04:32;;;;;;;3.88;2.95;;;9.60;96.70;;;;;;4910377;29;20055;-75
2022/12/21 05:07:00;;;;;;;3.60;3.20;;;9.80;96.70;;;;;;4912198;29;20364;-74
2022/12/21 05:09:29;;;;;;;4.93;3.15;;;9.80;96.70;;;;;;4899965;29;20079;-74
2022/12/21 05:11:56;;;;;;;3.65;2.85;;;9.80;96.70;;;;;;4922229;29;20047;-75
2022/12/21 05:14:24;;;;;;;3.67;3.00;;;9.80;96.70;;;;;;4898368;29;20056;-75
2022/12/21 05:16:52;;;;;;;3.85;2.65;;;9.80;96.70;;;;;;4910898;29;20040;-75
2022/12/21 05:19:20;;;;;;;3.58;2.55;;;9.80;96.70;;;;;;4895636;29;20059;-75
2022/12/21 05:21:48;;;;;;;4.10;3.17;;;9.70;96.70;;;;;;4903142;29;20056;-75
2022/12/21 05:24:16;;;;;;;5.53;2.92;;;9.80;96.70;;;;;;4906236;29;20142;-75
2022/12/21 05:26:45;;;;;;;3.80;3.35;;;9.80;96.70;;;;;;4919939;29;20055;-75
2022/12/21 05:29:13;;;;;;;3.85;2.92;;;9.80;96.70;;;;;;4919661;29;20697;-75
2022/12/21 05:31:41;;;;;;;3.55;3.05;;;9.90;96.70;;;;;;4893852;29;20106;-75
2022/12/21 05:34:09;;;;;;;3.63;2.83;;;9.80;96.70;;;;;;4878170;29;20044;-75
2022/12/21 05:36:37;;;;;;;4.88;2.97;;;9.70;96.70;;;;;;4886978;29;20562;-74
2022/12/21 05:39:05;;;;;;;5.20;3.33;;;9.80;96.70;;;;;;4903070;29;20060;-75
2022/12/21 05:41:33;;;;;;;4.22;3.42;;;9.80;96.70;;;;;;4893817;29;20051;-75
2022/12/21 05:44:02;;;;;;;4.80;3.35;;;9.70;96.70;;;;;;4898140;29;20953;-74
2022/12/21 05:46:30;;;;;;;4.85;3.40;;;9.60;96.70;;;;;;4914516;29;20790;-74
2022/12/21 05:48:58;;;;;;;3.60;3.15;;;9.50;96.70;;;;;;4900124;29;20090;-74
2022/12/21 05:51:26;;;;;;;5.43;3.10;;;9.40;96.70;;;;;;4909550;29;20126;-74
2022/12/21 05:53:54;;;;;;;6.25;3.60;;;9.40;96.70;;;;;;4892365;29;20051;-74
2022/12/21 05:56:23;;;;;;;4.40;4.00;;;9.40;96.70;;;;;;4923459;29;20051;-75
2022/12/21 05:58:51;;;;;;;4.20;3.35;;;9.40;96.70;;;;;;4893203;29;20048;-74
2022/12/21 06:01:20;;;;;;;6.72;3.55;;;9.40;96.70;;;;;;4893078;29;20580;-74
2022/12/21 06:03:49;;;;;;;4.80;3.65;;;9.40;96.70;;;;;;4897467;29;20134;-74
2022/12/21 06:06:18;;;;;;;5.35;4.13;;;9.40;96.70;;;;;;4883555;29;20150;-73
2022/12/21 06:08:46;;;;;;;5.15;3.97;;;9.40;96.70;;;;;;4906191;29;20055;-74
2022/12/21 06:11:15;;;;;;;5.20;4.18;;;9.40;96.70;;;;;;4891317;29;20932;-74
2022/12/21 06:13:43;;;;;;;5.47;4.50;;;9.40;96.70;;;;;;4914413;29;20052;-74
2022/12/21 06:16:14;;;;;;;5.47;4.25;;;9.30;96.70;;;;;;4897500;29;20047;-74
2022/12/21 06:18:44;;;;;;;5.97;4.97;;;9.40;96.70;;;;;;4892002;29;20539;-74
2022/12/21 06:21:14;;;;;;;6.85;5.25;;;9.50;96.70;;;;;;4892079;29;20060;-75
2022/12/21 06:23:43;;;;;;;6.40;4.72;;;9.40;96.70;;;;;;4892358;29;20044;-73
2022/12/21 06:26:13;;;;;;;7.43;4.70;;;9.40;96.70;;;;;;4927598;29;20058;-74
2022/12/21 06:28:42;;;;;;;6.78;4.53;;;9.40;96.70;;;;;;4902863;29;20482;-74
2022/12/21 06:31:11;;;;;;;6.53;4.30;;;9.40;96.70;;;;;;4911973;29;20557;-74
2022/12/21 06:33:40;;;;;;;8.00;4.32;;;9.50;96.70;;;;;;4899813;29;20075;-74
2022/12/21 06:36:10;;;;;;;6.45;4.47;;;9.50;96.70;;;;;;4908417;29;20079;-75
2022/12/21 06:38:39;;;;;;;4.75;4.10;;;9.60;96.70;;;;;;4911718;29;20052;-74
2022/12/21 06:41:08;;;;;;;6.00;4.65;;;9.50;96.70;;;;;;4927191;29;20380;-74
2022/12/21 06:43:38;;;;;;;13.40;8.32;;;9.50;96.70;;;;;;4900409;29;20418;-74
2022/12/21 06:46:07;;;;;;;9.77;7.10;;;9.50;96.70;;;;;;4913283;29;20072;-75
2022/12/21 06:48:36;;;;;;;10.73;6.72;;;9.60;96.70;;;;;;4900228;29;20062;-75
2022/12/21 06:51:06;;;;;;;8.85;5.45;;;9.60;96.70;;;;;;4899817;29;20050;-76
2022/12/21 06:53:37;;;;;;;10.30;5.20;;;9.50;96.70;;;;;;4916768;29;20063;-74
2022/12/21 06:56:07;;;;;;;10.30;6.38;;;9.50;96.70;;;;;;4908171;29;20048;-74
2022/12/21 06:58:44;;;;;;;7.03;5.35;;;9.50;96.70;;;;;;4908147;29;20866;-74
2022/12/21 07:01:13;;;;;;;9.85;6.15;;;9.50;96.70;;;;;;4891505;29;20134;-73
2022/12/21 07:03:42;;;;;;;7.95;4.88;;;9.60;96.70;;;;;;4894135;29;20902;-74
2022/12/21 07:06:13;;;;;;;11.13;6.38;;;9.60;96.70;;;;;;4882765;29;20474;-74
2022/12/21 07:08:43;;;;;;;8.18;5.53;;;9.60;96.70;;;;;;4917519;29;20125;-75
2022/12/21 07:11:13;;;;;;;11.15;6.43;;;9.60;96.70;;;;;;4907552;29;20471;-75
2022/12/21 07:13:42;;;;;;;8.63;4.88;;;9.70;96.70;;;;;;4898601;29;20055;-74
2022/12/21 07:16:11;;;;;;;7.63;4.15;;;9.70;96.70;;;;;;4891549;29;20079;-75
2022/12/21 07:18:39;;;;;;;6.88;4.85;;;9.70;96.70;;;;;;4891203;29;20062;-76
2022/12/21 07:21:10;;;;;;;7.78;5.15;;;9.70;96.70;;;;;;4907806;29;20150;-77
2022/12/21 07:23:39;;;;;;;7.07;4.32;;;9.70;96.70;;;;;;4908370;29;20048;-76
2022/12/21 07:26:11;;;;;;;4.90;3.60;;;9.70;96.70;;;;;;4925853;29;20048;-76
2022/12/21 07:28:39;;;;;;;6.28;3.80;;;9.70;96.70;;;;;;4920105;29;20062;-74
2022/12/21 07:31:08;;;;;;;7.25;3.63;;;9.70;96.70;;;;;;4907904;29;20044;-77
2022/12/21 07:33:37;;;;;;;6.93;3.85;;;9.70;96.70;;;;;;4895597;29;20150;-76
2022/12/21 07:36:08;;;;;;;5.35;3.50;;;9.80;96.70;;;;;;4904499;29;20048;-76
2022/12/21 07:38:37;;;;;;;5.68;3.55;;;9.80;96.70;;;;;;4907530;29;20052;-75
2022/12/21 07:41:09;;;;;;;7.93;4.55;;;9.90;96.70;;;;;;4890636;29;20267;-75
2022/12/21 07:43:38;;;;;;;6.78;4.00;;;9.90;96.70;;;;;;4886821;29;20092;-75
2022/12/21 07:46:08;;;;;;;8.60;4.45;;;9.90;96.70;;;;;;4923611;29;20739;-77
2022/12/21 07:48:36;;;;;;;13.23;4.07;;;10.00;96.70;;;;;;4902655;29;20051;-75
2022/12/21 07:51:05;;;;;;;5.88;4.07;;;10.00;96.70;;;;;;4917616;29;20130;-74
2022/12/21 07:53:33;;;;;;;6.53;4.03;;;10.00;96.70;;;;;;4926010;29;20577;-74
2022/12/21 07:56:03;;;;;;;6.63;3.70;;;10.10;96.70;;;;;;4881018;29;20047;-73
2022/12/21 07:58:33;;;;;;;5.68;3.58;;;10.10;96.70;;;;;;4922711;29;20043;-75
2022/12/21 08:01:06;;;;;;;5.95;3.65;;;10.20;96.70;;;;;;4908798;29;20054;-73
2022/12/21 08:03:35;;;;;;;5.55;3.50;;;10.20;96.70;;;;;;4897957;29;20051;-74
2022/12/21 08:06:04;;;;;;;6.50;4.10;;;10.20;96.70;;;;;;4918895;29;20085;-73
2022/12/21 08:08:33;;;;;;;5.32;4.32;;;10.30;96.70;;;;;;4920612;29;20044;-73
2022/12/21 08:11:13;;;;;;;9.65;4.30;;;10.30;96.70;;;;;;4904892;29;20059;-73
2022/12/21 08:13:43;;;;;;;5.97;3.78;;;10.40;96.70;;;;;;4920345;29;20855;-73
2022/12/21 08:16:13;;;;;;;5.05;4.30;;;10.40;96.70;;;;;;4897859;29;20047;-73
2022/12/21 08:18:42;;;;;;;7.28;4.75;;;10.40;96.70;;;;;;4897582;29;20099;-73
2022/12/21 08:21:10;;;;;;;4.45;3.78;;;10.50;96.70;;;;;;4914093;29;20130;-74
2022/12/21 08:23:39;;;;;;;4.85;4.07;;;10.60;96.70;;;;;;4905247;29;20131;-75
2022/12/21 08:26:10;;;;;;;5.60;3.97;;;10.60;96.70;;;;;;4924379;29;20050;-75
2022/12/21 08:28:38;;;;;;;7.20;4.32;;;10.60;96.70;;;;;;4887562;29;20068;-73
2022/12/21 08:31:09;;;;;;;3.95;3.55;;;10.60;96.70;;;;;;4909900;29;20132;-74
2022/12/21 08:33:37;;;;;;;5.65;4.40;;;10.70;96.70;;;;;;4898593;29;20561;-74
2022/12/21 08:36:09;;;;;;;6.53;4.35;;;10.70;96.70;;;;;;4914209;29;20040;-74
2022/12/21 08:38:37;;;;;;;8.30;4.22;;;10.90;96.70;;;;;;4906632;29;20091;-73
2022/12/21 08:41:25;;;;;;;5.28;4.28;;;11.00;96.70;;;;;;4894406;29;20410;-74
2022/12/21 08:43:53;;;;;;;5.78;4.07;;;11.10;96.70;;;;;;4908318;29;20044;-74
2022/12/21 08:46:22;;;;;;;8.45;4.18;;;11.30;96.70;;;;;;4892197;29;20551;-74
2022/12/21 08:48:50;;;;;;;8.75;4.55;;;11.40;96.70;;;;;;4890474;29;20650;-74
2022/12/21 08:51:18;;;;;;;6.22;4.25;;;11.40;96.70;;;;;;4896840;29;20052;-74
2022/12/21 08:53:46;;;;;;;10.48;4.40;;;11.40;96.70;;;;;;4902271;29;20048;-74
2022/12/21 08:56:19;;;;;;;5.35;3.42;;;11.40;96.70;;;;;;4916624;29;20048;-75
2022/12/21 08:58:47;;;;;;;5.13;3.95;;;11.50;96.70;;;;;;4899294;29;20043;-74
2022/12/21 09:01:18;;;;;;;6.38;3.70;;;11.50;96.70;;;;;;4907063;29;20039;-73
2022/12/21 09:03:47;;;;;;;5.25;3.83;;;11.50;96.70;;;;;;4909124;29;20052;-73
2022/12/21 09:06:15;;;;;;;4.68;3.72;;;11.60;96.70;;;;;;4907862;29;20525;-73
2022/12/21 09:08:43;;;;;;;5.85;4.00;;;11.60;96.70;;;;;;4900984;29;20079;-73
2022/12/21 09:11:13;;;;;;;4.25;3.85;;;11.60;96.70;;;;;;4917234;29;20054;-73
2022/12/21 09:13:42;;;;;;;6.32;4.88;;;11.60;96.70;;;;;;4915046;29;20084;-73
2022/12/21 09:16:14;;;;;;;6.90;5.00;;;11.60;96.70;;;;;;4908284;29;20051;-73
2022/12/21 09:18:43;;;;;;;6.90;5.05;;;11.60;96.70;;;;;;4925341;29;20510;-74
2022/12/21 09:21:14;;;;;;;6.53;4.88;;;11.70;96.70;;;;;;4888551;29;20060;-73
2022/12/21 09:23:42;;;;;;;4.68;4.13;;;11.70;96.70;;;;;;4897512;29;20051;-74
2022/12/21 09:26:10;;;;;;;4.72;4.28;;;11.70;96.70;;;;;;4877388;29;20045;-74
2022/12/21 09:28:38;;;;;;;5.57;4.13;;;11.70;96.70;;;;;;4893169;29;20060;-73
2022/12/21 09:31:08;;;;;;;5.00;4.05;;;11.80;96.70;;;;;;4897710;29;20047;-73
2022/12/21 09:33:37;;;;;;;5.78;4.50;;;11.80;96.70;;;;;;4896444;29;20056;-73
2022/12/21 09:36:06;;;;;;;7.53;4.20;;;11.90;96.70;;;;;;4901068;29;20509;-73
2022/12/21 09:38:35;;;;;;;5.50;4.28;;;12.00;96.70;;;;;;4884111;29;20147;-74
2022/12/21 09:41:41;;;;;;;9.10;4.60;;;12.00;96.70;;;;;;4889457;29;20091;-73
2022/12/21 09:44:33;;;;;;;3.80;3.47;;;12.10;96.70;;;;;;4835798;29;20110;-74
2022/12/21 09:47:06;;;;;;;5.15;4.15;;;12.10;96.70;;;;;;4905243;29;20195;-74
2022/12/21 09:49:40;;;;;;;5.35;4.25;;;12.20;96.70;;;;;;4901820;29;20463;-73
2022/12/21 09:52:17;;;;;;;5.65;3.67;;;12.20;96.70;;;;;;4889881;29;20044;-73
2022/12/21 09:54:54;;;;;;;4.82;3.78;;;12.30;96.70;;;;;;4893515;29;20040;-75
2022/12/21 09:57:28;;;;;;;6.53;4.00;;;12.40;96.70;;;;;;4880048;29;20056;-75
2022/12/21 09:59:56;;;;;;;3.60;3.03;;;12.40;96.70;;;;;;4899407;29;20052;-75
2022/12/21 10:02:39;;;;;;;4.75;3.65;;;12.40;96.70;;;;;;4887208;29;20135;-75
2022/12/21 10:05:19;;;;;;;6.05;3.88;;;12.40;96.70;;;;;;4892542;29;20056;-75
2022/12/21 10:08:26;;;;;;;4.88;3.60;;;12.40;96.70;;;;;;4908587;29;20043;-75
2022/12/21 10:11:04;;;;;;;4.83;3.83;;;12.50;96.70;;;;;;4889986;29;20475;-74
2022/12/21 10:13:41;;;;;;;4.45;4.05;;;12.60;96.70;;;;;;4902858;29;20894;-75
2022/12/21 10:16:20;;;;;;;6.65;4.00;;;12.70;96.70;;;;;;4895877;29;20045;-75
2022/12/21 10:19:12;;;;;;;5.30;4.25;;;12.70;96.70;;;;;;4905022;29;20044;-76
2022/12/21 10:21:48;;;;;;;5.13;3.83;;;12.70;96.70;;;;;;4892131;29;20055;-75
2022/12/21 10:24:21;;;;;;;4.63;3.78;;;12.80;96.70;;;;;;4920441;29;20054;-75
2022/12/21 10:26:58;;;;;;;5.35;3.50;;;12.80;96.70;;;;;;4921822;29;20119;-76
2022/12/21 10:29:33;;;;;;;4.30;3.45;;;12.80;96.70;;;;;;4892374;29;20063;-75
2022/12/21 10:32:01;;;;;;;5.35;4.22;;;12.80;96.70;;;;;;4891962;29;20051;-76
2022/12/21 10:34:33;;;;;;;4.53;3.58;;;12.90;96.70;;;;;;4912172;29;20502;-76
2022/12/21 10:37:05;;;;;;;11.50;6.75;;;13.00;96.70;;;;;;4901720;29;20035;-76
2022/12/21 10:39:33;;;;;;;5.90;4.95;;;13.00;96.70;;;;;;4919274;29;20054;-75
2022/12/21 10:42:08;;;;;;;5.90;4.18;;;13.10;96.70;;;;;;4900447;29;20047;-76
2022/12/21 10:44:39;;;;;;;5.60;3.70;;;13.10;96.70;;;;;;4899955;29;20044;-75
2022/12/21 10:47:12;;;;;;;6.03;4.13;;;13.20;96.70;;;;;;4921448;29;20048;-75
2022/12/21 10:49:41;;;;;;;5.82;4.03;;;13.20;96.70;;;;;;4901187;29;20068;-75
2022/12/21 10:52:35;;;;;;;7.75;3.83;;;13.20;96.70;;;;;;4910130;29;21279;-75
2022/12/21 10:55:04;;;;;;;7.90;4.43;;;13.20;96.70;;;;;;4909788;29;20325;-74
2022/12/21 10:57:34;;;;;;;6.13;4.25;;;13.30;96.70;;;;;;4912187;29;20123;-75
2022/12/21 11:00:21;;;;;;;5.72;4.72;;;13.30;96.70;;;;;;4898859;29;20061;-75
2022/12/21 11:02:52;;;;;;;10.20;8.48;;;13.30;96.70;;;;;;4917864;29;20107;-75
2022/12/21 11:05:31;;;;;;;5.97;4.85;;;13.30;96.70;;;;;;4900751;29;20514;-74
2022/12/21 11:08:15;;;;;;;6.45;4.68;;;13.30;96.70;;;;;;4907958;29;20048;-75
2022/12/21 11:10:45;;;;;;;7.65;4.40;;;13.40;96.70;;;;;;4919396;29;20063;-75
2022/12/21 11:13:25;;;;;;;5.00;4.03;;;13.40;96.70;;;;;;4921366;29;20049;-74
2022/12/21 11:15:58;;;;;;;4.82;4.07;;;13.40;96.70;;;;;;4909149;29;20066;-74
2022/12/21 11:18:39;;;;;;;10.37;4.50;;;13.40;96.70;;;;;;4908166;29;20122;-75
2022/12/21 11:21:19;;;;;;;7.25;4.90;;;13.50;96.70;;;;;;4894769;29;20048;-74
2022/12/21 11:23:54;;;;;;;8.75;4.50;;;13.50;96.70;;;;;;4918484;29;20052;-75
2022/12/21 11:26:26;;;;;;;6.13;4.85;;;13.50;96.70;;;;;;4890642;29;20075;-75
2022/12/21 11:29:02;;;;;;;8.65;5.55;;;13.50;96.70;;;;;;4878266;29;20087;-73
2022/12/21 11:31:36;;;;;;;7.55;6.35;;;13.50;96.70;;;;;;4921245;29;20115;-73
2022/12/21 11:34:28;;;;;;;8.02;4.85;;;13.50;96.70;;;;;;4901032;29;20055;-74
2022/12/21 11:36:57;;;;;;;7.35;5.07;;;13.50;96.70;;;;;;4902267;29;20123;-73
2022/12/21 11:39:26;;;;;;;8.00;5.13;;;13.60;96.70;;;;;;4893225;29;20434;-74
2022/12/21 11:41:54;;;;;;;7.85;5.55;;;13.60;96.70;;;;;;4902236;29;20052;-74
2022/12/21 11:44:29;;;;;;;7.07;5.43;;;13.60;96.70;;;;;;4911094;29;20040;-74
2022/12/21 11:47:12;;;;;;;8.55;5.70;;;13.60;96.70;;;;;;4890578;29;20119;-74
2022/12/21 11:50:08;;;;;;;7.43;4.47;;;13.60;96.70;;;;;;4921999;29;20130;-75
2022/12/21 11:52:47;;;;;;;5.70;4.40;;;13.60;96.70;;;;;;4882716;29;20051;-74
2022/12/21 11:55:23;;;;;;;6.53;5.07;;;13.60;96.70;;;;;;4890670;29;20044;-74
2022/12/21 11:58:05;;;;;;;8.07;5.07;;;13.60;96.70;;;;;;4895359;29;20056;-74
2022/12/21 12:00:42;;;;;;;9.13;5.32;;;13.60;96.70;;;;;;4907529;29;20066;-74
2022/12/21 12:03:53;;;;;;;7.40;5.40;;;13.70;96.70;;;;;;4892406;29;20062;-74
2022/12/21 12:06:55;;;;;;;7.57;5.78;;;13.70;96.70;;;;;;4888665;29;20434;-74
2022/12/21 12:10:15;;;;;;;8.20;5.43;;;13.70;96.70;;;;;;4907139;29;20063;-74
2022/12/21 12:12:53;;;;;;;8.77;5.05;;;13.70;96.70;;;;;;4882865;29;20522;-74
2022/12/21 12:15:35;;;;;;;6.22;4.40;;;13.60;96.70;;;;;;4910895;29;20043;-74
2022/12/21 12:18:19;;;;;;;6.28;4.97;;;13.60;96.70;;;;;;4877939;29;20139;-73
2022/12/21 12:21:05;;;;;;;10.18;6.40;;;13.50;96.70;;;;;;4906040;29;20530;-74
2022/12/21 12:23:41;;;;;;;10.55;8.27;;;13.50;96.70;;;;;;4903188;29;20048;-73
2022/12/21 12:26:17;;;;;;;17.08;11.52;;;13.50;96.70;;;;;;4899359;29;20163;-74
2022/12/21 12:29:01;;;;;;;19.23;11.43;;;13.40;96.70;;;;;;4906535;29;20562;-74
2022/12/21 12:31:43;;;;;;;11.82;8.60;;;13.40;96.70;;;;;;4908103;29;20050;-74
2022/12/21 12:34:40;;;;;;;8.38;6.13;;;13.40;96.70;;;;;;4915194;29;20127;-74
2022/12/21 12:37:18;;;;;;;7.57;4.60;;;13.40;96.70;;;;;;4925243;29;20079;-75
2022/12/21 12:39:55;;;;;;;5.47;3.67;;;13.30;96.70;;;;;;4907845;29;20048;-74
2022/12/21 12:42:31;;;;;;;8.25;4.85;;;13.30;96.70;;;;;;4915265;29;20047;-74
2022/12/21 12:45:11;;;;;;;7.53;5.00;;;13.30;96.70;;;;;;4910959;29;20114;-75
2022/12/21 12:47:47;;;;;;;7.75;5.15;;;13.30;96.70;;;;;;4908155;29;20071;-74
2022/12/21 12:50:27;;;;;;;8.13;4.88;;;13.30;96.70;;;;;;4907213;29;20104;-74
2022/12/21 12:53:11;;;;;;;5.53;4.50;;;13.30;96.70;;;;;;4898110;29;20078;-74
2022/12/21 12:55:46;;;;;;;7.88;4.72;;;13.30;96.70;;;;;;4922939;29;20071;-74
2022/12/21 12:58:21;;;;;;;5.97;4.32;;;13.20;96.70;;;;;;4923791;29;20123;-74
2022/12/21 13:00:57;;;;;;;8.45;5.30;;;13.20;96.70;;;;;;4890137;29;20044;-74
2022/12/21 13:03:57;;;;;;;11.25;7.80;;;13.20;96.70;;;;;;4895424;29;20437;-74
2022/12/21 13:06:39;;;;;;;9.88;6.10;;;13.20;96.70;;;;;;4921108;29;21243;-73
2022/12/21 13:09:15;;;;;;;6.68;4.07;;;13.20;96.70;;;;;;4911590;29;20076;-74
2022/12/21 13:11:48;;;;;;;7.82;4.13;;;13.20;96.70;;;;;;4909427;29;20155;-73
2022/12/21 13:14:22;;;;;;;6.80;3.53;;;13.20;96.70;;;;;;4900114;29;20071;-76
2022/12/21 13:17:06;;;;;;;6.10;4.00;;;13.30;96.70;;;;;;4915283;29;20048;-74
2022/12/21 13:19:35;;;;;;;5.35;3.58;;;13.30;96.70;;;;;;4920225;29;20075;-74
2022/12/21 13:22:08;;;;;;;5.85;3.65;;;13.30;96.70;;;;;;4919420;29;20552;-75
2022/12/21 13:24:41;;;;;;;5.13;3.30;;;13.30;96.70;;;;;;4887149;29;20048;-74
2022/12/21 13:27:17;;;;;;;5.47;3.40;;;13.30;96.70;;;;;;4910456;29;20139;-75
2022/12/21 13:29:56;;;;;;;5.60;4.22;;;13.30;96.70;;;;;;4900585;29;20056;-74
2022/12/21 13:32:28;;;;;;;7.15;5.53;;;13.40;96.70;;;;;;4903038;29;20143;-74
2022/12/21 13:35:15;;;;;;;6.57;3.88;;;13.40;96.70;;;;;;4900246;29;20150;-75
2022/12/21 13:37:47;;;;;;;6.45;4.15;;;13.40;96.70;;;;;;4892172;29;20482;-75